createdAt,value
2017-01-24T00:00:19.023Z,934.07
2017-01-24T00:01:29.822Z,934.12
2017-01-24T00:02:40.618Z,934.11
2017-01-24T00:03:51.422Z,934.11
2017-01-24T00:05:02.228Z,934.09
2017-01-24T00:06:13.021Z,934.09
2017-01-24T00:07:23.813Z,934.12
2017-01-24T00:08:34.613Z,934.07
2017-01-24T00:09:45.433Z,934.09
2017-01-24T00:10:56.227Z,934.1
2017-01-24T00:12:07.021Z,934.11
2017-01-24T00:13:17.811Z,934.12
2017-01-24T00:14:28.612Z,934.19
2017-01-24T00:15:39.418Z,934.21
2017-01-24T00:16:50.220Z,934.21
2017-01-24T00:18:01.018Z,934.2
2017-01-24T00:19:11.807Z,934.22
2017-01-24T00:20:22.947Z,934.18
2017-01-24T00:21:33.743Z,934.15
2017-01-24T00:22:44.548Z,934.2
2017-01-24T00:23:55.341Z,934.13
2017-01-24T00:25:06.147Z,934.14
2017-01-24T00:26:17.205Z,934.14
2017-01-24T00:27:27.994Z,934.12
2017-01-24T00:28:38.793Z,934.07
2017-01-24T00:29:49.595Z,934.06
2017-01-24T00:31:00.405Z,934.06
2017-01-24T00:32:11.500Z,934.06
2017-01-24T00:33:22.320Z,934.06
2017-01-24T00:34:33.114Z,934.06
2017-01-24T00:35:43.915Z,934.04
2017-01-24T00:36:54.712Z,934.03
2017-01-24T00:38:05.506Z,934.04
2017-01-24T00:39:16.308Z,934.08
2017-01-24T00:40:27.111Z,934.07
2017-01-24T00:41:37.913Z,934.07
2017-01-24T00:42:48.718Z,934.06
2017-01-24T00:43:59.513Z,934.07
2017-01-24T00:45:10.308Z,934.09
2017-01-24T00:46:21.100Z,934.12
2017-01-24T00:47:31.890Z,934.14
2017-01-24T00:48:42.690Z,934.18
2017-01-24T00:49:53.485Z,934.17
2017-01-24T00:51:04.281Z,934.16
2017-01-24T00:52:15.101Z,934.17
2017-01-24T00:53:25.902Z,934.15
2017-01-24T00:54:36.729Z,934.13
2017-01-24T00:55:47.885Z,934.16
2017-01-24T00:56:58.675Z,934.16
2017-01-24T00:58:09.475Z,934.22
2017-01-24T00:59:20.288Z,934.21
2017-01-24T01:00:31.077Z,934.21
2017-01-24T01:01:56.647Z,934.24
2017-01-24T01:03:08.044Z,934.23
2017-01-24T01:04:18.840Z,934.21
2017-01-24T01:05:29.641Z,934.17
2017-01-24T01:06:40.435Z,934.2
2017-01-24T01:07:51.237Z,934.14
2017-01-24T01:09:02.042Z,934.16
2017-01-24T01:10:12.839Z,934.16
2017-01-24T01:11:23.662Z,934.16
2017-01-24T01:12:34.456Z,934.09
2017-01-24T01:13:45.265Z,934.14
2017-01-24T01:14:56.062Z,934.13
2017-01-24T01:16:06.864Z,934.14
2017-01-24T01:17:17.671Z,934.13
2017-01-24T01:18:28.495Z,934.13
2017-01-24T01:19:39.315Z,934.05
2017-01-24T01:20:50.117Z,934.07
2017-01-24T01:22:00.910Z,934.06
2017-01-24T01:23:11.718Z,934.02
2017-01-24T01:24:22.535Z,934
2017-01-24T01:25:33.358Z,933.99
2017-01-24T01:26:44.150Z,934.02
2017-01-24T01:27:54.953Z,934.02
2017-01-24T01:29:05.762Z,934
2017-01-24T01:30:16.778Z,934
2017-01-24T01:31:27.569Z,934.01
2017-01-24T01:32:38.364Z,933.97
2017-01-24T01:33:49.210Z,933.98
2017-01-24T01:35:00.018Z,933.94
2017-01-24T01:36:10.832Z,933.95
2017-01-24T01:37:21.638Z,933.95
2017-01-24T01:38:32.442Z,933.94
2017-01-24T01:39:43.255Z,933.94
2017-01-24T01:40:54.067Z,933.96
2017-01-24T01:42:04.879Z,933.94
2017-01-24T01:43:15.685Z,933.95
2017-01-24T01:44:26.494Z,933.89
2017-01-24T01:45:37.289Z,933.92
2017-01-24T01:46:48.084Z,933.89
2017-01-24T01:47:59.074Z,933.89
2017-01-24T01:49:09.869Z,933.89
2017-01-24T01:50:20.677Z,933.89
2017-01-24T01:51:31.468Z,933.87
2017-01-24T01:52:42.259Z,933.85
2017-01-24T01:53:53.404Z,933.85
2017-01-24T01:55:04.194Z,933.87
2017-01-24T01:56:14.982Z,933.9
2017-01-24T01:57:25.775Z,933.87
2017-01-24T01:58:36.565Z,933.87
2017-01-24T01:59:47.359Z,933.82
2017-01-24T02:00:58.149Z,933.84
2017-01-24T02:02:08.942Z,933.87
2017-01-24T02:03:19.731Z,933.91
2017-01-24T02:04:30.546Z,933.91
2017-01-24T02:05:41.543Z,933.88
2017-01-24T02:06:52.334Z,933.88
2017-01-24T02:08:03.124Z,933.85
2017-01-24T02:09:13.916Z,933.88
2017-01-24T02:10:24.710Z,933.85
2017-01-24T02:11:35.502Z,933.88
2017-01-24T02:12:46.322Z,933.93
2017-01-24T02:13:57.110Z,933.88
2017-01-24T02:15:07.936Z,933.87
2017-01-24T02:16:18.734Z,933.9
2017-01-24T02:17:29.523Z,933.88
2017-01-24T02:18:54.796Z,933.88
2017-01-24T02:20:05.615Z,933.89
2017-01-24T02:21:17.017Z,933.9
2017-01-24T02:22:42.288Z,933.88
2017-01-24T02:23:53.079Z,933.85
2017-01-24T02:25:03.870Z,933.85
2017-01-24T02:26:14.670Z,933.87
2017-01-24T02:27:25.465Z,933.9
2017-01-24T02:28:36.505Z,933.87
2017-01-24T02:29:47.296Z,933.87
2017-01-24T02:30:58.085Z,933.87
2017-01-24T02:32:08.879Z,933.83
2017-01-24T02:33:19.674Z,933.83
2017-01-24T02:34:30.667Z,933.83
2017-01-24T02:35:41.459Z,933.82
2017-01-24T02:36:52.258Z,933.82
2017-01-24T02:38:03.051Z,933.77
2017-01-24T02:39:28.346Z,933.76
2017-01-24T02:40:39.140Z,933.73
2017-01-24T02:41:49.934Z,933.72
2017-01-24T02:43:00.727Z,933.73
2017-01-24T02:44:11.526Z,933.69
2017-01-24T02:45:22.673Z,933.66
2017-01-24T02:46:33.479Z,933.65
2017-01-24T02:47:44.276Z,933.66
2017-01-24T02:48:55.076Z,933.65
2017-01-24T02:50:20.353Z,933.62
2017-01-24T02:51:31.501Z,933.61
2017-01-24T02:52:42.313Z,933.56
2017-01-24T02:53:53.120Z,933.55
2017-01-24T02:55:03.919Z,933.56
2017-01-24T02:56:14.980Z,933.55
2017-01-24T02:57:25.790Z,933.55
2017-01-24T02:58:36.600Z,933.53
2017-01-24T02:59:47.407Z,933.54
2017-01-24T03:00:58.218Z,933.5
2017-01-24T03:02:09.292Z,933.47
2017-01-24T03:03:20.099Z,933.47
2017-01-24T03:04:30.908Z,933.44
2017-01-24T03:05:41.714Z,933.46
2017-01-24T03:06:52.522Z,933.44
2017-01-24T03:08:03.586Z,933.43
2017-01-24T03:09:15.007Z,933.4
2017-01-24T03:10:25.818Z,933.38
2017-01-24T03:11:51.097Z,933.41
2017-01-24T03:13:01.905Z,933.41
2017-01-24T03:14:13.060Z,933.36
2017-01-24T03:15:38.338Z,933.41
2017-01-24T03:16:49.139Z,933.46
2017-01-24T03:17:59.948Z,933.43
2017-01-24T03:19:11.008Z,933.42
2017-01-24T03:20:21.849Z,933.44
2017-01-24T03:21:32.642Z,933.43
2017-01-24T03:22:43.449Z,933.46
2017-01-24T03:23:54.487Z,933.44
2017-01-24T03:25:05.301Z,933.41
2017-01-24T03:26:30.573Z,933.38
2017-01-24T03:27:41.373Z,933.37
2017-01-24T03:28:52.174Z,933.34
2017-01-24T03:30:02.977Z,933.33
2017-01-24T03:31:13.776Z,933.29
2017-01-24T03:33:49.853Z,933.27
2017-01-24T03:35:00.914Z,933.26
2017-01-24T03:36:11.723Z,933.32
2017-01-24T03:37:22.532Z,933.28
2017-01-24T03:38:33.340Z,933.27
2017-01-24T03:39:44.146Z,933.3
2017-01-24T03:40:54.951Z,933.3
2017-01-24T03:42:05.758Z,933.25
2017-01-24T03:43:16.565Z,933.27
2017-01-24T03:44:27.391Z,933.24
2017-01-24T03:45:38.205Z,933.25
2017-01-24T03:46:49.009Z,933.3
2017-01-24T03:47:59.814Z,933.28
2017-01-24T03:49:10.623Z,933.25
2017-01-24T03:50:21.429Z,933.24
2017-01-24T03:51:32.587Z,933.23
2017-01-24T03:52:43.390Z,933.23
2017-01-24T03:53:54.198Z,933.23
2017-01-24T03:55:05.006Z,933.24
2017-01-24T03:56:30.283Z,933.26
2017-01-24T03:57:41.338Z,933.29
2017-01-24T03:58:52.177Z,933.26
2017-01-24T04:00:02.983Z,933.28
2017-01-24T04:01:14.400Z,933.3
2017-01-24T04:02:25.407Z,933.27
2017-01-24T04:03:36.217Z,933.26
2017-01-24T04:04:47.028Z,933.21
2017-01-24T04:05:57.836Z,933.24
2017-01-24T04:07:08.624Z,933.24
2017-01-24T04:08:34.246Z,933.17
2017-01-24T04:09:45.052Z,933.19
2017-01-24T04:10:55.857Z,933.18
2017-01-24T04:12:06.666Z,933.17
2017-01-24T04:13:17.722Z,933.18
2017-01-24T04:14:28.527Z,933.19
2017-01-24T04:15:39.336Z,933.18
2017-01-24T04:16:50.143Z,933.15
2017-01-24T04:18:00.955Z,933.16
2017-01-24T04:19:12.114Z,933.14
2017-01-24T04:20:22.926Z,933.18
2017-01-24T04:21:33.731Z,933.13
2017-01-24T04:22:44.537Z,933.14
2017-01-24T04:23:55.342Z,933.14
2017-01-24T04:25:06.165Z,933.18
2017-01-24T04:26:16.982Z,933.13
2017-01-24T04:27:27.793Z,933.14
2017-01-24T04:28:38.600Z,933.16
2017-01-24T04:29:49.415Z,933.12
2017-01-24T04:31:00.569Z,933.12
2017-01-24T04:32:11.379Z,933.14
2017-01-24T04:33:22.191Z,933.07
2017-01-24T04:34:33.002Z,933.09
2017-01-24T04:35:43.809Z,933.05
2017-01-24T04:37:09.435Z,933.02
2017-01-24T04:38:20.241Z,932.97
2017-01-24T04:39:31.049Z,932.95
2017-01-24T04:40:41.855Z,932.94
2017-01-24T04:41:53.011Z,932.95
2017-01-24T04:43:03.816Z,932.92
2017-01-24T04:44:14.621Z,932.93
2017-01-24T04:45:25.426Z,932.92
2017-01-24T04:46:36.268Z,932.92
2017-01-24T04:47:47.278Z,932.9
2017-01-24T04:48:58.085Z,932.87
2017-01-24T04:50:08.893Z,932.83
2017-01-24T04:51:19.721Z,932.81
2017-01-24T04:52:30.525Z,932.79
2017-01-24T04:53:41.538Z,932.78
2017-01-24T04:54:52.368Z,932.75
2017-01-24T04:56:03.173Z,932.76
2017-01-24T04:57:13.981Z,932.75
2017-01-24T04:58:24.789Z,932.73
2017-01-24T04:59:35.593Z,932.7
2017-01-24T05:00:46.399Z,932.73
2017-01-24T05:01:57.201Z,932.67
2017-01-24T05:03:08.010Z,932.7
2017-01-24T05:04:18.818Z,932.71
2017-01-24T05:05:29.626Z,932.74
2017-01-24T05:06:54.908Z,932.79
2017-01-24T05:08:06.329Z,932.79
2017-01-24T05:09:17.140Z,932.84
2017-01-24T05:10:27.945Z,932.78
2017-01-24T05:11:39.002Z,932.8
2017-01-24T05:12:49.808Z,932.85
2017-01-24T05:14:00.616Z,932.85
2017-01-24T05:15:11.435Z,932.86
2017-01-24T05:16:22.460Z,932.84
2017-01-24T05:17:33.265Z,932.85
2017-01-24T05:18:44.098Z,932.76
2017-01-24T05:20:09.376Z,932.73
2017-01-24T05:21:21.381Z,932.73
2017-01-24T05:22:32.166Z,932.67
2017-01-24T05:23:42.955Z,932.72
2017-01-24T05:24:53.738Z,932.65
2017-01-24T05:26:04.526Z,932.67
2017-01-24T05:27:15.666Z,932.69
2017-01-24T05:28:26.466Z,932.63
2017-01-24T05:29:37.251Z,932.61
2017-01-24T05:30:48.038Z,932.63
2017-01-24T05:31:58.826Z,932.56
2017-01-24T05:33:09.874Z,932.57
2017-01-24T05:34:20.669Z,932.54
2017-01-24T05:35:31.456Z,932.54
2017-01-24T05:36:42.243Z,932.49
2017-01-24T05:37:53.040Z,932.46
2017-01-24T05:39:04.053Z,932.47
2017-01-24T05:40:14.851Z,932.48
2017-01-24T05:41:25.639Z,932.48
2017-01-24T05:42:36.432Z,932.45
2017-01-24T05:43:47.222Z,932.47
2017-01-24T05:44:58.009Z,932.51
2017-01-24T05:46:08.793Z,932.52
2017-01-24T05:47:19.583Z,932.47
2017-01-24T05:48:44.859Z,932.46
2017-01-24T05:49:55.654Z,932.45
2017-01-24T05:51:06.799Z,932.41
2017-01-24T05:52:17.596Z,932.41
2017-01-24T05:53:28.389Z,932.36
2017-01-24T05:54:39.179Z,932.4
2017-01-24T05:55:50.574Z,932.4
2017-01-24T05:57:01.372Z,932.34
2017-01-24T05:58:12.172Z,932.38
2017-01-24T05:59:22.974Z,932.41
2017-01-24T06:00:33.769Z,932.41
2017-01-24T06:01:44.761Z,932.43
2017-01-24T06:02:55.597Z,932.46
2017-01-24T06:04:06.392Z,932.44
2017-01-24T06:05:17.203Z,932.47
2017-01-24T06:06:28.002Z,932.44
2017-01-24T06:07:39.182Z,932.44
2017-01-24T06:08:49.981Z,932.48
2017-01-24T06:10:00.790Z,932.46
2017-01-24T06:11:12.194Z,932.43
2017-01-24T06:12:23.001Z,932.45
2017-01-24T06:13:34.177Z,932.46
2017-01-24T06:14:44.981Z,932.45
2017-01-24T06:15:55.788Z,932.47
2017-01-24T06:17:06.592Z,932.52
2017-01-24T06:18:17.404Z,932.51
2017-01-24T06:19:28.412Z,932.53
2017-01-24T06:20:39.219Z,932.53
2017-01-24T06:21:50.032Z,932.54
2017-01-24T06:23:00.837Z,932.55
2017-01-24T06:24:11.648Z,932.54
2017-01-24T06:25:22.705Z,932.5
2017-01-24T06:26:33.510Z,932.52
2017-01-24T06:27:58.787Z,932.52
2017-01-24T06:29:09.604Z,932.51
2017-01-24T06:30:20.407Z,932.53
2017-01-24T06:31:31.465Z,932.57
2017-01-24T06:32:42.269Z,932.59
2017-01-24T06:33:53.070Z,932.63
2017-01-24T06:35:03.875Z,932.64
2017-01-24T06:36:14.686Z,932.64
2017-01-24T06:37:25.493Z,932.68
2017-01-24T06:38:36.323Z,932.67
2017-01-24T06:39:47.128Z,932.71
2017-01-24T06:40:57.932Z,932.65
2017-01-24T06:42:08.940Z,932.64
2017-01-24T06:43:19.746Z,932.61
2017-01-24T06:44:30.549Z,932.62
2017-01-24T06:45:41.355Z,932.62
2017-01-24T06:46:52.161Z,932.67
2017-01-24T06:48:03.838Z,932.58
2017-01-24T06:49:14.646Z,932.66
2017-01-24T06:50:25.454Z,932.62
2017-01-24T06:51:36.260Z,932.61
2017-01-24T06:52:47.065Z,932.62
2017-01-24T06:53:58.220Z,932.62
2017-01-24T06:55:09.027Z,932.61
2017-01-24T06:56:19.841Z,932.64
2017-01-24T06:57:30.650Z,932.68
2017-01-24T06:58:41.459Z,932.68
2017-01-24T06:59:52.516Z,932.65
2017-01-24T07:01:03.325Z,932.68
2017-01-24T07:02:14.132Z,932.67
2017-01-24T07:03:24.937Z,932.63
2017-01-24T07:04:35.744Z,932.64
2017-01-24T07:05:46.550Z,932.62
2017-01-24T07:06:57.356Z,932.68
2017-01-24T07:08:08.166Z,932.67
2017-01-24T07:09:18.970Z,932.64
2017-01-24T07:10:29.774Z,932.65
2017-01-24T07:11:40.834Z,932.65
2017-01-24T07:12:51.637Z,932.66
2017-01-24T07:14:16.912Z,932.67
2017-01-24T07:15:42.796Z,932.67
2017-01-24T07:16:53.605Z,932.65
2017-01-24T07:18:04.413Z,932.7
2017-01-24T07:19:15.833Z,932.66
2017-01-24T07:20:26.638Z,932.68
2017-01-24T07:21:37.445Z,932.69
2017-01-24T07:22:48.251Z,932.67
2017-01-24T07:23:59.055Z,932.67
2017-01-24T07:25:10.474Z,932.69
2017-01-24T07:26:21.284Z,932.66
2017-01-24T07:27:32.089Z,932.63
2017-01-24T07:28:57.568Z,932.66
2017-01-24T07:30:08.376Z,932.67
2017-01-24T07:31:19.183Z,932.69
2017-01-24T07:32:29.990Z,932.66
2017-01-24T07:33:40.820Z,932.67
2017-01-24T07:34:51.626Z,932.67
2017-01-24T07:36:02.434Z,932.68
2017-01-24T07:37:13.244Z,932.63
2017-01-24T07:38:24.054Z,932.6
2017-01-24T07:39:35.158Z,932.58
2017-01-24T07:40:45.962Z,932.57
2017-01-24T07:41:56.766Z,932.53
2017-01-24T07:43:07.576Z,932.56
2017-01-24T07:44:18.384Z,932.54
2017-01-24T07:45:29.439Z,932.49
2017-01-24T07:46:40.247Z,932.47
2017-01-24T07:47:51.085Z,932.48
2017-01-24T07:49:01.890Z,932.43
2017-01-24T07:50:12.697Z,932.38
2017-01-24T07:51:23.503Z,932.37
2017-01-24T07:52:34.312Z,932.36
2017-01-24T07:53:45.148Z,932.35
2017-01-24T07:54:55.953Z,932.31
2017-01-24T07:56:06.759Z,932.29
2017-01-24T07:57:17.567Z,932.27
2017-01-24T07:58:28.371Z,932.3
2017-01-24T07:59:39.177Z,932.27
2017-01-24T08:00:49.986Z,932.28
2017-01-24T08:02:00.793Z,932.29
2017-01-24T08:03:11.852Z,932.34
2017-01-24T08:04:22.658Z,932.3
2017-01-24T08:05:33.463Z,932.35
2017-01-24T08:06:44.266Z,932.36
2017-01-24T08:07:55.074Z,932.4
2017-01-24T08:09:06.233Z,932.4
2017-01-24T08:10:17.044Z,932.46
2017-01-24T08:11:27.855Z,932.46
2017-01-24T08:12:38.659Z,932.46
2017-01-24T08:13:49.465Z,932.51
2017-01-24T08:15:00.523Z,932.52
2017-01-24T08:16:11.329Z,932.53
2017-01-24T08:17:22.141Z,932.54
2017-01-24T08:18:32.945Z,932.52
2017-01-24T08:19:43.757Z,932.55
2017-01-24T08:20:54.915Z,932.54
2017-01-24T08:22:05.723Z,932.58
2017-01-24T08:23:16.556Z,932.59
2017-01-24T08:24:27.364Z,932.62
2017-01-24T08:25:38.170Z,932.66
2017-01-24T08:26:48.977Z,932.68
2017-01-24T08:27:59.784Z,932.7
2017-01-24T08:29:10.616Z,932.68
2017-01-24T08:30:21.419Z,932.7
2017-01-24T08:31:32.225Z,932.73
2017-01-24T08:32:43.278Z,932.76
2017-01-24T08:33:54.088Z,932.78
2017-01-24T08:35:04.895Z,932.81
2017-01-24T08:36:15.706Z,932.82
2017-01-24T08:37:26.516Z,932.83
2017-01-24T08:38:37.320Z,932.87
2017-01-24T08:39:48.127Z,932.88
2017-01-24T08:40:58.931Z,932.89
2017-01-24T08:42:09.742Z,932.91
2017-01-24T08:43:20.551Z,932.92
2017-01-24T08:44:31.710Z,932.93
2017-01-24T08:45:42.526Z,932.92
2017-01-24T08:46:53.331Z,932.9
2017-01-24T08:48:04.135Z,932.9
2017-01-24T08:49:14.940Z,932.9
2017-01-24T08:50:25.999Z,932.93
2017-01-24T08:51:36.806Z,932.98
2017-01-24T08:53:02.085Z,932.98
2017-01-24T08:54:12.891Z,932.99
2017-01-24T08:55:23.694Z,933.01
2017-01-24T08:56:34.501Z,933.01
2017-01-24T08:57:45.309Z,933.01
2017-01-24T08:58:56.115Z,933.01
2017-01-24T09:00:06.929Z,933.01
2017-01-24T09:01:17.992Z,933
2017-01-24T09:02:28.803Z,933.01
2017-01-24T09:03:39.612Z,933.01
2017-01-24T09:04:50.418Z,933.04
2017-01-24T09:06:01.224Z,933.05
2017-01-24T09:07:12.030Z,933.06
2017-01-24T09:08:22.837Z,933.07
2017-01-24T09:09:33.646Z,933.06
2017-01-24T09:10:44.455Z,933.09
2017-01-24T09:11:55.259Z,933.1
2017-01-24T09:13:06.272Z,933.12
2017-01-24T09:14:17.080Z,933.1
2017-01-24T09:15:27.899Z,933.09
2017-01-24T09:16:38.706Z,933.13
2017-01-24T09:17:49.513Z,933.17
2017-01-24T09:19:00.585Z,933.2
2017-01-24T09:20:11.390Z,933.2
2017-01-24T09:21:22.194Z,933.24
2017-01-24T09:22:33.002Z,933.21
2017-01-24T09:23:43.809Z,933.23
2017-01-24T09:24:54.866Z,933.23
2017-01-24T09:26:05.676Z,933.25
2017-01-24T09:27:16.491Z,933.25
2017-01-24T09:28:27.300Z,933.26
2017-01-24T09:29:38.108Z,933.28
2017-01-24T09:30:49.264Z,933.33
2017-01-24T09:32:00.072Z,933.33
2017-01-24T09:34:36.159Z,933.41
2017-01-24T09:35:46.980Z,933.41
2017-01-24T09:36:57.784Z,933.49
2017-01-24T09:38:08.590Z,933.5
2017-01-24T09:39:19.401Z,933.52
2017-01-24T09:40:30.205Z,933.52
2017-01-24T09:41:41.014Z,933.53
2017-01-24T09:44:17.101Z,933.59
2017-01-24T09:45:28.514Z,933.61
2017-01-24T09:46:39.331Z,933.64
2017-01-24T09:47:50.489Z,933.67
2017-01-24T09:49:01.296Z,933.65
2017-01-24T09:50:12.103Z,933.68
2017-01-24T09:51:22.908Z,933.66
2017-01-24T09:52:33.966Z,933.63
2017-01-24T09:53:44.771Z,933.62
2017-01-24T09:54:55.583Z,933.64
2017-01-24T09:56:06.392Z,933.65
2017-01-24T09:57:17.197Z,933.66
2017-01-24T09:58:28.347Z,933.7
2017-01-24T09:59:39.148Z,933.74
2017-01-24T10:00:49.945Z,933.75
2017-01-24T10:02:00.741Z,933.74
2017-01-24T10:03:11.549Z,933.73
2017-01-24T10:04:22.707Z,933.78
2017-01-24T10:05:33.511Z,933.79
2017-01-24T10:06:44.316Z,933.77
2017-01-24T10:07:55.124Z,933.76
2017-01-24T10:09:05.922Z,933.8
2017-01-24T10:10:17.079Z,933.82
2017-01-24T10:11:27.879Z,933.81
2017-01-24T10:12:38.686Z,933.81
2017-01-24T10:13:49.487Z,933.82
2017-01-24T10:15:00.293Z,933.83
2017-01-24T10:16:11.095Z,933.85
2017-01-24T10:17:21.884Z,933.8
2017-01-24T10:18:33.282Z,933.76
2017-01-24T10:19:44.073Z,933.77
2017-01-24T10:20:54.874Z,933.77
2017-01-24T10:22:05.875Z,933.74
2017-01-24T10:23:16.664Z,933.76
2017-01-24T10:24:27.452Z,933.74
2017-01-24T10:25:38.247Z,933.8
2017-01-24T10:26:49.047Z,933.83
2017-01-24T10:28:14.319Z,933.81
2017-01-24T10:29:25.120Z,933.78
2017-01-24T10:30:35.921Z,933.76
2017-01-24T10:31:46.721Z,933.77
2017-01-24T10:32:57.517Z,933.8
2017-01-24T10:34:08.662Z,933.77
2017-01-24T10:35:19.461Z,933.81
2017-01-24T10:36:30.279Z,933.84
2017-01-24T10:39:06.489Z,933.81
2017-01-24T10:40:17.549Z,933.8
2017-01-24T10:41:28.340Z,933.78
2017-01-24T10:42:39.122Z,933.79
2017-01-24T10:43:49.905Z,933.79
2017-01-24T10:45:00.693Z,933.77
2017-01-24T10:46:11.480Z,933.76
2017-01-24T10:47:22.265Z,933.73
2017-01-24T10:48:33.081Z,933.76
2017-01-24T10:49:43.869Z,933.71
2017-01-24T10:50:55.010Z,933.73
2017-01-24T10:52:06.408Z,933.75
2017-01-24T10:53:17.199Z,933.7
2017-01-24T10:54:27.992Z,933.72
2017-01-24T10:55:53.250Z,933.73
2017-01-24T10:57:04.286Z,933.69
2017-01-24T10:58:15.077Z,933.74
2017-01-24T10:59:25.868Z,933.72
2017-01-24T11:00:36.666Z,933.76
2017-01-24T11:01:47.740Z,933.72
2017-01-24T11:02:58.584Z,933.78
2017-01-24T11:04:09.510Z,933.74
2017-01-24T11:05:20.478Z,933.8
2017-01-24T11:06:31.462Z,933.74
2017-01-24T11:07:42.469Z,933.75
2017-01-24T11:08:53.403Z,933.79
2017-01-24T11:10:04.464Z,933.77
2017-01-24T11:11:15.259Z,933.73
2017-01-24T11:12:40.519Z,933.74
2017-01-24T11:13:51.313Z,933.78
2017-01-24T11:15:02.104Z,933.73
2017-01-24T11:16:12.921Z,933.75
2017-01-24T11:17:23.707Z,933.77
2017-01-24T11:18:34.496Z,933.79
2017-01-24T11:19:45.287Z,933.74
2017-01-24T11:20:56.076Z,933.72
2017-01-24T11:22:06.862Z,933.74
2017-01-24T11:23:17.651Z,933.67
2017-01-24T11:24:28.437Z,933.7
2017-01-24T11:25:39.219Z,933.74
2017-01-24T11:26:50.014Z,933.67
2017-01-24T11:28:00.810Z,933.7
2017-01-24T11:29:11.599Z,933.62
2017-01-24T11:30:22.389Z,933.64
2017-01-24T11:31:33.198Z,933.6
2017-01-24T11:32:43.987Z,933.65
2017-01-24T11:33:54.775Z,933.59
2017-01-24T11:35:06.182Z,933.67
2017-01-24T11:36:17.175Z,933.66
2017-01-24T11:37:27.964Z,933.69
2017-01-24T11:38:53.225Z,933.67
2017-01-24T11:40:04.635Z,933.63
2017-01-24T11:41:15.427Z,933.67
2017-01-24T11:42:26.514Z,933.62
2017-01-24T11:43:51.778Z,933.66
2017-01-24T11:45:02.566Z,933.68
2017-01-24T11:46:13.356Z,933.66
2017-01-24T11:47:24.152Z,933.66
2017-01-24T11:48:34.940Z,933.64
2017-01-24T11:49:45.735Z,933.65
2017-01-24T11:50:56.548Z,933.68
2017-01-24T11:52:07.351Z,933.67
2017-01-24T11:53:18.141Z,933.64
2017-01-24T11:54:28.932Z,933.66
2017-01-24T11:55:39.735Z,933.7
2017-01-24T11:57:05.004Z,933.65
2017-01-24T11:58:15.795Z,933.63
2017-01-24T11:59:26.585Z,933.66
2017-01-24T12:00:51.856Z,933.66
2017-01-24T12:02:02.661Z,933.7
2017-01-24T12:03:27.935Z,933.69
2017-01-24T12:05:07.675Z,933.67
2017-01-24T12:06:18.599Z,933.65
2017-01-24T12:07:29.462Z,933.61
2017-01-24T12:08:40.307Z,933.59
2017-01-24T12:09:51.298Z,933.59
2017-01-24T12:11:02.332Z,933.65
2017-01-24T12:12:13.984Z,933.66
2017-01-24T12:13:24.997Z,933.63
2017-01-24T12:14:35.890Z,933.71
2017-01-24T12:15:46.860Z,933.64
2017-01-24T12:16:57.654Z,933.65
2017-01-24T12:18:08.462Z,933.69
2017-01-24T12:19:19.268Z,933.68
2017-01-24T12:20:30.745Z,933.71
2017-01-24T12:21:42.157Z,933.74
2017-01-24T12:22:52.976Z,933.66
2017-01-24T12:24:03.765Z,933.63
2017-01-24T12:25:14.579Z,933.65
2017-01-24T12:26:25.372Z,933.64
2017-01-24T12:27:36.173Z,933.68
2017-01-24T12:28:47.570Z,933.67
2017-01-24T12:29:58.425Z,933.68
2017-01-24T12:31:09.519Z,933.71
2017-01-24T12:32:20.314Z,933.67
2017-01-24T12:33:45.585Z,933.69
2017-01-24T12:34:56.375Z,933.72
2017-01-24T12:36:07.166Z,933.72
2017-01-24T12:37:17.952Z,933.71
2017-01-24T12:38:28.772Z,933.74
2017-01-24T12:39:40.169Z,933.69
2017-01-24T12:40:50.959Z,933.75
2017-01-24T12:42:01.745Z,933.74
2017-01-24T12:43:12.536Z,933.69
2017-01-24T12:44:23.329Z,933.71
2017-01-24T12:45:48.625Z,933.67
2017-01-24T12:46:59.413Z,933.75
2017-01-24T12:48:10.404Z,933.74
2017-01-24T12:49:35.683Z,933.78
2017-01-24T12:50:46.475Z,933.87
2017-01-24T12:51:57.267Z,933.84
2017-01-24T12:53:08.309Z,933.78
2017-01-24T12:54:19.111Z,933.73
2017-01-24T12:55:29.912Z,933.8
2017-01-24T12:58:06.202Z,933.72
2017-01-24T12:59:17.002Z,933.74
2017-01-24T13:00:27.803Z,933.69
2017-01-24T13:01:38.616Z,933.73
2017-01-24T13:02:49.412Z,933.72
2017-01-24T13:04:00.421Z,933.68
2017-01-24T13:05:26.308Z,933.7
2017-01-24T13:06:37.120Z,933.7
2017-01-24T13:09:15.543Z,933.69
2017-01-24T13:10:40.858Z,933.71
2017-01-24T13:11:53.462Z,933.7
2017-01-24T13:13:19.590Z,933.77
2017-01-24T13:14:45.338Z,933.77
2017-01-24T13:15:56.133Z,933.76
2017-01-24T13:17:06.926Z,933.74
2017-01-24T13:18:17.730Z,933.77
2017-01-24T13:19:28.521Z,933.74
2017-01-24T13:20:39.328Z,933.76
2017-01-24T13:21:50.122Z,933.69
2017-01-24T13:23:15.389Z,933.73
2017-01-24T13:24:26.188Z,933.7
2017-01-24T13:25:36.976Z,933.67
2017-01-24T13:26:47.769Z,933.66
2017-01-24T13:27:58.563Z,933.66
2017-01-24T13:29:09.376Z,933.65
2017-01-24T13:30:20.173Z,933.54
2017-01-24T13:31:30.964Z,933.62
2017-01-24T13:32:41.768Z,933.65
2017-01-24T13:33:52.768Z,933.62
2017-01-24T13:35:07.214Z,933.66
2017-01-24T13:36:18.013Z,933.65
2017-01-24T13:37:28.802Z,933.59
2017-01-24T13:38:41.741Z,933.54
2017-01-24T13:39:53.134Z,933.59
2017-01-24T13:41:05.111Z,933.54
2017-01-24T13:42:44.861Z,933.6
2017-01-24T13:43:55.655Z,933.51
2017-01-24T13:46:47.519Z,933.53
2017-01-24T13:47:58.346Z,933.51
2017-01-24T13:50:34.422Z,933.49
2017-01-24T13:51:45.211Z,933.54
2017-01-24T13:52:56.612Z,933.51
2017-01-24T13:54:07.404Z,933.44
2017-01-24T13:55:18.330Z,933.4
2017-01-24T13:56:29.119Z,933.39
2017-01-24T13:57:39.918Z,933.38
2017-01-24T13:58:51.521Z,933.4
2017-01-24T14:00:02.341Z,933.34
2017-01-24T14:01:13.140Z,933.31
2017-01-24T14:02:23.938Z,933.38
2017-01-24T14:03:34.748Z,933.36
2017-01-24T14:04:45.588Z,933.3
2017-01-24T14:05:56.423Z,933.38
2017-01-24T14:07:07.403Z,933.32
2017-01-24T14:08:18.230Z,933.36
2017-01-24T14:09:29.119Z,933.31
2017-01-24T14:10:40.175Z,933.26
2017-01-24T14:11:50.973Z,933.29
2017-01-24T14:13:01.771Z,933.3
2017-01-24T14:14:12.562Z,933.33
2017-01-24T14:15:37.847Z,933.36
2017-01-24T14:16:48.857Z,933.31
2017-01-24T14:18:00.292Z,933.33
2017-01-24T14:19:11.116Z,933.29
2017-01-24T14:20:21.957Z,933.3
2017-01-24T14:21:33.199Z,933.28
2017-01-24T14:22:59.271Z,933.27
2017-01-24T14:24:10.097Z,933.32
2017-01-24T14:25:20.912Z,933.34
2017-01-24T14:26:31.736Z,933.33
2017-01-24T14:27:43.363Z,933.32
2017-01-24T14:28:55.395Z,933.32
2017-01-24T14:30:06.210Z,933.28
2017-01-24T14:31:17.218Z,933.32
2017-01-24T14:32:28.018Z,933.31
2017-01-24T14:33:38.815Z,933.25
2017-01-24T14:34:49.606Z,933.29
2017-01-24T14:36:00.641Z,933.36
2017-01-24T14:37:11.435Z,933.33
2017-01-24T14:38:22.482Z,933.36
2017-01-24T14:39:33.276Z,933.34
2017-01-24T14:40:44.074Z,933.29
2017-01-24T14:42:09.345Z,933.27
2017-01-24T14:43:20.140Z,933.21
2017-01-24T14:44:30.944Z,933.26
2017-01-24T14:47:07.031Z,933.27
2017-01-24T14:48:17.826Z,933.31
2017-01-24T14:49:28.619Z,933.27
2017-01-24T14:50:39.415Z,933.25
2017-01-24T14:51:50.212Z,933.21
2017-01-24T14:53:01.614Z,933.22
2017-01-24T14:54:12.796Z,933.26
2017-01-24T14:55:23.596Z,933.32
2017-01-24T14:56:34.398Z,933.35
2017-01-24T14:57:45.191Z,933.3
2017-01-24T14:58:55.985Z,933.29
2017-01-24T15:00:06.979Z,933.26
2017-01-24T15:01:17.775Z,933.27
2017-01-24T15:02:28.571Z,933.28
2017-01-24T15:03:39.365Z,933.24
2017-01-24T15:04:50.157Z,933.24
2017-01-24T15:06:01.301Z,933.29
2017-01-24T15:07:12.101Z,933.24
2017-01-24T15:08:22.905Z,933.26
2017-01-24T15:09:33.738Z,933.21